• Join FlightAware (Why Join?)
  • Login
  • US Flag 
12:52PM EDT


 

Airport Tracker/Info


-or-


 

Live Flight TrackerFlight Track Log ✈ MTN8308 ✈ 02-May-2013 ✈ KEWR - KBWI

Flight Track Log - Related Links

Times and Time Zones

All times are in EDT time to prevent confusion due to time zone crossing. See the MTN8308 flight status page for this flight to view local times or setup timezone preferences in your user account.

Time Position Orientation Groundspeed Altitude Reporting Facility
EDT Latitude Longitude Course Direction KTS MPH feet Rate Location/Type
03:23AM 40.6500 -74.2000 237° Southwest 104 120 1,300  Level New York TRACON
03:24AM 40.6333 -74.2333 237° Southwest 117 135 2,100 720 Climbing New York TRACON
03:25AM 40.6167 -74.2667 237° Southwest 131 151 2,800 600 Climbing New York TRACON
03:26AM 40.6000 -74.3167 246° West 146 168 3,400 540 Climbing New York TRACON
03:27AM 40.5833 -74.3500 237° Southwest 156 180 3,900 300 Climbing New York TRACON
03:28AM 40.5500 -74.4000 229° Southwest 173 199 4,000 60 Climbing New York TRACON
03:29AM 40.5167 -74.4667 237° Southwest 183 211 4,100  Climbing New York TRACON
03:30AM 40.5000 -74.5167 246° West 184 212 4,100  Level New York TRACON
03:31AM 40.4667 -74.5667 229° Southwest 183 211 4,100  Level New York TRACON
03:32AM 40.4333 -74.6333 237° Southwest 180 207 4,100  Level New York TRACON
03:33AM 40.4167 -74.6833 246° West 180 207 4,100  Level New York TRACON
03:34AM 40.3833 -74.7333 229° Southwest 179 206 4,100  Level New York TRACON
03:35AM 40.3500 -74.7833 229° Southwest 179 206 4,100  Level New York TRACON
03:36AM 40.3167 -74.8333 229° Southwest 180 207 4,100  Level New York TRACON
03:37AM 40.2833 -74.8833 229° Southwest 180 207 4,100  Level New York TRACON
03:38AM 40.2500 -74.9333 229° Southwest 177 204 4,100  Level New York TRACON
03:39AM 40.2167 -74.9833 229° Southwest 177 204 4,100  Level New York TRACON
03:40AM 40.2000 -75.0333 246° West 177 204 4,100  Level New York TRACON
03:41AM 40.1667 -75.1000 237° Southwest 180 207 4,100  Level New York TRACON
03:42AM 40.1333 -75.1500 229° Southwest 179 206 4,100  Level New York TRACON
03:42AM 40.1167 -75.1667 217° Southwest 178 205 4,100  Level Philadelphia TRACON
03:43AM 40.0833 -75.2167 229° Southwest 179 206 4,100  Level Philadelphia TRACON
03:44AM 40.0667 -75.2667 246° West 178 205 4,100  Level Philadelphia TRACON
03:45AM 40.0333 -75.3167 229° Southwest 177 204 4,100  Level Philadelphia TRACON
03:46AM 40.0000 -75.3500 217° Southwest 177 204 4,100  Level Philadelphia TRACON
03:47AM 39.9667 -75.4000 229° Southwest 176 203 4,100  Level Philadelphia TRACON
03:48AM 39.9500 -75.4500 247° West 178 205 4,100  Level Philadelphia TRACON
03:49AM 39.9167 -75.5000 229° Southwest 179 206 4,100  Level Philadelphia TRACON
03:50AM 39.8833 -75.5500 229° Southwest 178 205 4,100  Level Philadelphia TRACON
03:51AM 39.8500 -75.6000 229° Southwest 177 204 4,100  Level Philadelphia TRACON
03:52AM 39.8167 -75.6500 229° Southwest 177 204 4,100  Level Philadelphia TRACON
03:53AM 39.7833 -75.7000 229° Southwest 177 204 4,100  Level Philadelphia TRACON
03:54AM 39.7500 -75.7500 229° Southwest 177 204 4,100  Level Philadelphia TRACON
03:55AM 39.7167 -75.8000 229° Southwest 177 204 4,100  Level Philadelphia TRACON
03:56AM 39.6833 -75.8500 229° Southwest 175 201 4,100  Level Philadelphia TRACON
03:57AM 39.6667 -75.9000 247° West 177 204 4,100 -120 Level Philadelphia TRACON
03:58AM 39.6500 -75.9167 218° Southwest 177 204 4,000 -120 Descending Potomac TRACON
03:59AM 39.6167 -75.9667 229° Southwest 177 204 4,000 60 Level Potomac TRACON
03:59AM 39.6000 -76.0000 237° Southwest 176 203 4,100 60 Climbing Philadelphia TRACON
04:00AM 39.5667 -76.0500 229° Southwest 178 205 4,100  Level Philadelphia TRACON
04:01AM 39.5333 -76.1000 229° Southwest 175 201 4,100  Level Philadelphia TRACON
04:02AM 39.5000 -76.1500 229° Southwest 176 203 4,100 -120 Level Philadelphia TRACON
04:03AM 39.5000 -76.1667 270° West 176 203 4,000 -120 Descending Potomac TRACON
04:04AM 39.4667 -76.2167 229° Southwest 176 203 4,000  Level Potomac TRACON
04:05AM 39.4333 -76.2667 229° Southwest 173 199 4,000  Level Potomac TRACON
04:06AM 39.4000 -76.3167 229° Southwest 173 199 4,000 -180 Level Potomac TRACON
04:07AM 39.3833 -76.3667 247° West 176 203 3,700 -300 Descending Potomac TRACON
04:08AM 39.3500 -76.4167 229° Southwest 183 211 3,500 -240 Descending Potomac TRACON
04:09AM 39.3167 -76.4667 229° Southwest 179 206 3,300 -540 Descending Potomac TRACON
04:10AM 39.2833 -76.5167 229° Southwest 183 211 2,500 -780 Descending Potomac TRACON
04:11AM 39.2500 -76.5667 229° Southwest 185 213 1,800 -660 Descending Potomac TRACON
04:12AM 39.2333 -76.6167 247° West 176 203 1,200 -600 Descending Potomac TRACON
04:13AM 39.2000 -76.6667 229° Southwest 155 178 600 -600 Descending Potomac TRACON
04:15AM 39.1754 -76.6683 270° West  Level Estimated
04:22AM 39.1754 -76.6683 270° West  Level Estimated
04:23AM 39.1754 -76.6683 270° West  Level Estimated
04:24AM 39.1754 -76.6683 270° West  Level Estimated